sensor_id;sensor_type;location;lat;lon;timestamp;temperature;humidity
12370;DHT22;6249;52.128;9.986;2022-08-06T00:02:48;13.50;99.90
12370;DHT22;6249;52.128;9.986;2022-08-06T00:06:09;13.60;99.90
12370;DHT22;6249;52.128;9.986;2022-08-06T00:09:29;13.80;99.90
12370;DHT22;6249;52.128;9.986;2022-08-06T00:12:53;13.80;99.90
12370;DHT22;6249;52.128;9.986;2022-08-06T00:16:16;13.70;99.90
12370;DHT22;6249;52.128;9.986;2022-08-06T00:19:37;13.50;99.90
12370;DHT22;6249;52.128;9.986;2022-08-06T00:23:00;13.40;99.90
12370;DHT22;6249;52.128;9.986;2022-08-06T00:26:20;13.30;99.90
12370;DHT22;6249;52.128;9.986;2022-08-06T00:29:42;13.10;99.90
12370;DHT22;6249;52.128;9.986;2022-08-06T00:33:05;13.10;99.90
12370;DHT22;6249;52.128;9.986;2022-08-06T00:36:26;13.00;99.90
12370;DHT22;6249;52.128;9.986;2022-08-06T00:39:46;13.00;99.90
12370;DHT22;6249;52.128;9.986;2022-08-06T00:43:07;12.90;99.90
12370;DHT22;6249;52.128;9.986;2022-08-06T00:46:28;12.90;99.90
12370;DHT22;6249;52.128;9.986;2022-08-06T00:49:49;12.80;99.90
12370;DHT22;6249;52.128;9.986;2022-08-06T00:53:09;12.80;99.90
12370;DHT22;6249;52.128;9.986;2022-08-06T00:56:30;12.80;99.90
12370;DHT22;6249;52.128;9.986;2022-08-06T00:59:51;12.80;99.90
12370;DHT22;6249;52.128;9.986;2022-08-06T01:03:11;12.80;99.90
12370;DHT22;6249;52.128;9.986;2022-08-06T01:06:32;12.70;99.90
12370;DHT22;6249;52.128;9.986;2022-08-06T01:09:53;12.80;99.90
12370;DHT22;6249;52.128;9.986;2022-08-06T01:13:15;12.70;99.90
12370;DHT22;6249;52.128;9.986;2022-08-06T01:27:36;12.80;99.90
12370;DHT22;6249;52.128;9.986;2022-08-06T01:31:07;12.80;99.90
12370;DHT22;6249;52.128;9.986;2022-08-06T01:34:41;12.80;99.90
12370;DHT22;6249;52.128;9.986;2022-08-06T01:38:10;12.80;99.90
12370;DHT22;6249;52.128;9.986;2022-08-06T01:41:38;12.80;99.90
12370;DHT22;6249;52.128;9.986;2022-08-06T01:45:01;12.80;99.90
12370;DHT22;6249;52.128;9.986;2022-08-06T01:48:24;12.80;99.90
12370;DHT22;6249;52.128;9.986;2022-08-06T01:51:48;12.70;99.90
12370;DHT22;6249;52.128;9.986;2022-08-06T01:55:13;12.70;99.90
12370;DHT22;6249;52.128;9.986;2022-08-06T01:58:41;12.60;99.90
12370;DHT22;6249;52.128;9.986;2022-08-06T02:02:06;12.60;99.90
12370;DHT22;6249;52.128;9.986;2022-08-06T02:05:28;12.50;99.90
12370;DHT22;6249;52.128;9.986;2022-08-06T02:08:51;12.50;99.90
12370;DHT22;6249;52.128;9.986;2022-08-06T02:12:25;12.40;99.90
12370;DHT22;6249;52.128;9.986;2022-08-06T02:15:48;12.40;99.90
12370;DHT22;6249;52.128;9.986;2022-08-06T02:19:13;12.40;99.90
12370;DHT22;6249;52.128;9.986;2022-08-06T02:22:37;12.40;99.90
12370;DHT22;6249;52.128;9.986;2022-08-06T02:26:02;12.40;99.90
12370;DHT22;6249;52.128;9.986;2022-08-06T02:29:23;12.40;99.90
12370;DHT22;6249;52.128;9.986;2022-08-06T02:32:45;12.40;99.90
12370;DHT22;6249;52.128;9.986;2022-08-06T02:36:15;12.40;99.90
12370;DHT22;6249;52.128;9.986;2022-08-06T02:39:44;12.30;99.90
12370;DHT22;6249;52.128;9.986;2022-08-06T02:43:14;12.30;99.90
12370;DHT22;6249;52.128;9.986;2022-08-06T02:46:43;12.30;99.90
12370;DHT22;6249;52.128;9.986;2022-08-06T02:50:06;12.30;99.90
12370;DHT22;6249;52.128;9.986;2022-08-06T02:53:42;12.20;99.90
12370;DHT22;6249;52.128;9.986;2022-08-06T02:57:06;12.20;99.90
12370;DHT22;6249;52.128;9.986;2022-08-06T03:00:27;12.10;99.90
12370;DHT22;6249;52.128;9.986;2022-08-06T03:03:52;12.10;99.90
12370;DHT22;6249;52.128;9.986;2022-08-06T03:07:14;12.00;99.90
12370;DHT22;6249;52.128;9.986;2022-08-06T03:10:38;11.90;99.90
12370;DHT22;6249;52.128;9.986;2022-08-06T03:14:01;11.90;99.90
12370;DHT22;6249;52.128;9.986;2022-08-06T03:17:23;11.80;99.90
12370;DHT22;6249;52.128;9.986;2022-08-06T03:20:45;11.80;99.90
12370;DHT22;6249;52.128;9.986;2022-08-06T03:24:10;11.80;99.90
12370;DHT22;6249;52.128;9.986;2022-08-06T03:27:33;11.80;99.90
12370;DHT22;6249;52.128;9.986;2022-08-06T03:30:54;11.70;99.90
12370;DHT22;6249;52.128;9.986;2022-08-06T03:34:19;11.70;99.90
12370;DHT22;6249;52.128;9.986;2022-08-06T03:37:42;11.80;99.90
12370;DHT22;6249;52.128;9.986;2022-08-06T03:41:04;11.70;99.90
12370;DHT22;6249;52.128;9.986;2022-08-06T03:44:25;11.80;99.90
12370;DHT22;6249;52.128;9.986;2022-08-06T03:47:51;11.80;99.90
12370;DHT22;6249;52.128;9.986;2022-08-06T03:51:16;11.80;99.90
12370;DHT22;6249;52.128;9.986;2022-08-06T03:54:41;11.80;99.90
12370;DHT22;6249;52.128;9.986;2022-08-06T03:58:05;11.70;99.90
12370;DHT22;6249;52.128;9.986;2022-08-06T04:01:27;11.60;99.90
12370;DHT22;6249;52.128;9.986;2022-08-06T04:04:51;11.50;99.90
12370;DHT22;6249;52.128;9.986;2022-08-06T04:08:12;11.50;99.90
12370;DHT22;6249;52.128;9.986;2022-08-06T04:11:33;11.40;99.90
12370;DHT22;6249;52.128;9.986;2022-08-06T04:14:57;11.30;99.90
12370;DHT22;6249;52.128;9.986;2022-08-06T04:18:24;11.30;99.90
12370;DHT22;6249;52.128;9.986;2022-08-06T04:21:46;11.30;99.90
12370;DHT22;6249;52.128;9.986;2022-08-06T04:25:07;11.30;99.90
12370;DHT22;6249;52.128;9.986;2022-08-06T04:28:31;11.30;99.90
12370;DHT22;6249;52.128;9.986;2022-08-06T04:31:54;11.20;99.90
12370;DHT22;6249;52.128;9.986;2022-08-06T04:35:16;11.20;99.90
12370;DHT22;6249;52.128;9.986;2022-08-06T04:38:38;11.30;99.90
12370;DHT22;6249;52.128;9.986;2022-08-06T04:42:01;11.50;99.90
12370;DHT22;6249;52.128;9.986;2022-08-06T04:45:24;11.50;99.90
12370;DHT22;6249;52.128;9.986;2022-08-06T04:48:47;11.50;99.90
12370;DHT22;6249;52.128;9.986;2022-08-06T04:52:25;11.50;99.90
12370;DHT22;6249;52.128;9.986;2022-08-06T04:55:46;11.50;99.90
12370;DHT22;6249;52.128;9.986;2022-08-06T04:59:09;11.50;99.90
12370;DHT22;6249;52.128;9.986;2022-08-06T05:02:30;11.60;99.90
12370;DHT22;6249;52.128;9.986;2022-08-06T05:06:16;11.70;99.90
12370;DHT22;6249;52.128;9.986;2022-08-06T05:09:38;11.80;99.90
12370;DHT22;6249;52.128;9.986;2022-08-06T05:13:00;11.90;99.90
12370;DHT22;6249;52.128;9.986;2022-08-06T05:16:27;12.10;99.90
12370;DHT22;6249;52.128;9.986;2022-08-06T05:20:02;12.10;99.90
12370;DHT22;6249;52.128;9.986;2022-08-06T05:23:34;12.20;99.90
12370;DHT22;6249;52.128;9.986;2022-08-06T05:26:55;12.20;99.90
12370;DHT22;6249;52.128;9.986;2022-08-06T05:30:16;12.30;99.90
12370;DHT22;6249;52.128;9.986;2022-08-06T05:33:38;12.40;99.90
12370;DHT22;6249;52.128;9.986;2022-08-06T05:36:59;12.50;99.90
12370;DHT22;6249;52.128;9.986;2022-08-06T05:40:25;12.60;99.90
12370;DHT22;6249;52.128;9.986;2022-08-06T05:43:54;12.70;99.90
12370;DHT22;6249;52.128;9.986;2022-08-06T05:47:19;12.80;99.90
12370;DHT22;6249;52.128;9.986;2022-08-06T05:50:48;12.80;99.90
12370;DHT22;6249;52.128;9.986;2022-08-06T05:54:25;12.90;99.90
12370;DHT22;6249;52.128;9.986;2022-08-06T05:57:54;13.00;99.90
12370;DHT22;6249;52.128;9.986;2022-08-06T06:01:19;13.10;99.90
12370;DHT22;6249;52.128;9.986;2022-08-06T06:04:42;13.20;99.90
12370;DHT22;6249;52.128;9.986;2022-08-06T06:08:05;13.30;99.90
12370;DHT22;6249;52.128;9.986;2022-08-06T06:11:27;13.50;99.90
12370;DHT22;6249;52.128;9.986;2022-08-06T06:14:49;13.70;99.90
12370;DHT22;6249;52.128;9.986;2022-08-06T06:21:56;14.00;99.90
12370;DHT22;6249;52.128;9.986;2022-08-06T06:25:26;14.30;99.90
12370;DHT22;6249;52.128;9.986;2022-08-06T06:29:06;14.40;99.90
12370;DHT22;6249;52.128;9.986;2022-08-06T06:35:59;14.70;99.90
12370;DHT22;6249;52.128;9.986;2022-08-06T06:39:31;14.70;99.90
12370;DHT22;6249;52.128;9.986;2022-08-06T06:46:49;14.80;99.90
12370;DHT22;6249;52.128;9.986;2022-08-06T06:50:26;15.00;99.90
12370;DHT22;6249;52.128;9.986;2022-08-06T06:53:50;15.10;99.90
12370;DHT22;6249;52.128;9.986;2022-08-06T06:57:19;15.10;99.90
12370;DHT22;6249;52.128;9.986;2022-08-06T07:00:42;15.20;99.90
12370;DHT22;6249;52.128;9.986;2022-08-06T07:04:07;15.30;99.90
12370;DHT22;6249;52.128;9.986;2022-08-06T07:07:31;15.40;99.90
12370;DHT22;6249;52.128;9.986;2022-08-06T07:10:55;15.70;99.90
12370;DHT22;6249;52.128;9.986;2022-08-06T07:14:18;15.70;99.90
12370;DHT22;6249;52.128;9.986;2022-08-06T07:17:43;15.60;99.90
12370;DHT22;6249;52.128;9.986;2022-08-06T07:21:05;15.70;99.90
12370;DHT22;6249;52.128;9.986;2022-08-06T07:24:26;15.80;99.90
12370;DHT22;6249;52.128;9.986;2022-08-06T07:27:51;15.90;99.90
12370;DHT22;6249;52.128;9.986;2022-08-06T07:31:19;16.00;99.90
12370;DHT22;6249;52.128;9.986;2022-08-06T07:34:46;16.20;99.90
12370;DHT22;6249;52.128;9.986;2022-08-06T07:38:09;16.30;99.90
12370;DHT22;6249;52.128;9.986;2022-08-06T07:41:33;16.40;99.90
12370;DHT22;6249;52.128;9.986;2022-08-06T07:44:57;16.60;99.90
12370;DHT22;6249;52.128;9.986;2022-08-06T07:48:32;16.70;99.90
12370;DHT22;6249;52.128;9.986;2022-08-06T07:51:57;16.80;99.90
12370;DHT22;6249;52.128;9.986;2022-08-06T07:55:21;17.00;99.90
12370;DHT22;6249;52.128;9.986;2022-08-06T07:58:45;17.00;99.90
12370;DHT22;6249;52.128;9.986;2022-08-06T08:02:11;17.30;99.90
12370;DHT22;6249;52.128;9.986;2022-08-06T08:05:32;17.50;99.90
12370;DHT22;6249;52.128;9.986;2022-08-06T08:09:16;17.60;99.90
12370;DHT22;6249;52.128;9.986;2022-08-06T08:12:40;18.00;99.90
12370;DHT22;6249;52.128;9.986;2022-08-06T08:16:03;18.10;99.90
12370;DHT22;6249;52.128;9.986;2022-08-06T08:19:28;18.10;99.90
12370;DHT22;6249;52.128;9.986;2022-08-06T08:22:52;18.30;99.90
12370;DHT22;6249;52.128;9.986;2022-08-06T08:26:13;18.40;99.90
12370;DHT22;6249;52.128;9.986;2022-08-06T08:29:34;18.50;99.90
12370;DHT22;6249;52.128;9.986;2022-08-06T08:32:55;18.60;99.90
12370;DHT22;6249;52.128;9.986;2022-08-06T08:36:15;18.40;99.90
12370;DHT22;6249;52.128;9.986;2022-08-06T08:39:41;18.50;99.90
12370;DHT22;6249;52.128;9.986;2022-08-06T08:43:02;18.80;99.90
12370;DHT22;6249;52.128;9.986;2022-08-06T08:46:25;18.90;99.90
12370;DHT22;6249;52.128;9.986;2022-08-06T08:49:51;18.90;99.90
12370;DHT22;6249;52.128;9.986;2022-08-06T08:53:14;19.20;99.90
12370;DHT22;6249;52.128;9.986;2022-08-06T08:56:36;19.60;99.90
12370;DHT22;6249;52.128;9.986;2022-08-06T08:59:57;19.90;99.90
12370;DHT22;6249;52.128;9.986;2022-08-06T09:03:17;19.80;99.90
12370;DHT22;6249;52.128;9.986;2022-08-06T09:06:40;19.70;99.90
12370;DHT22;6249;52.128;9.986;2022-08-06T09:10:07;19.80;99.90
12370;DHT22;6249;52.128;9.986;2022-08-06T09:13:29;19.90;99.00
12370;DHT22;6249;52.128;9.986;2022-08-06T09:16:50;19.90;99.30
12370;DHT22;6249;52.128;9.986;2022-08-06T09:20:11;19.70;99.70
12370;DHT22;6249;52.128;9.986;2022-08-06T09:23:37;19.60;99.90
12370;DHT22;6249;52.128;9.986;2022-08-06T09:27:07;19.70;99.80
12370;DHT22;6249;52.128;9.986;2022-08-06T09:30:28;19.90;99.10
12370;DHT22;6249;52.128;9.986;2022-08-06T09:33:57;20.40;99.30
12370;DHT22;6249;52.128;9.986;2022-08-06T09:37:29;21.10;98.70
12370;DHT22;6249;52.128;9.986;2022-08-06T09:41:09;21.80;96.80
12370;DHT22;6249;52.128;9.986;2022-08-06T09:44:34;22.40;94.70
12370;DHT22;6249;52.128;9.986;2022-08-06T09:48:06;22.40;94.20
12370;DHT22;6249;52.128;9.986;2022-08-06T09:51:28;22.10;96.00
12370;DHT22;6249;52.128;9.986;2022-08-06T09:54:50;22.00;95.00
12370;DHT22;6249;52.128;9.986;2022-08-06T09:58:11;21.80;96.20
12370;DHT22;6249;52.128;9.986;2022-08-06T10:01:39;21.80;96.10
12370;DHT22;6249;52.128;9.986;2022-08-06T10:05:07;22.40;94.20
12370;DHT22;6249;52.128;9.986;2022-08-06T10:08:31;23.10;93.80
12370;DHT22;6249;52.128;9.986;2022-08-06T10:11:52;22.80;92.90
12370;DHT22;6249;52.128;9.986;2022-08-06T10:15:28;22.30;94.50
12370;DHT22;6249;52.128;9.986;2022-08-06T10:18:49;21.80;94.60
12370;DHT22;6249;52.128;9.986;2022-08-06T10:22:17;21.50;96.00
12370;DHT22;6249;52.128;9.986;2022-08-06T10:25:42;21.90;94.60
12370;DHT22;6249;52.128;9.986;2022-08-06T10:29:08;22.60;94.00
12370;DHT22;6249;52.128;9.986;2022-08-06T10:35:59;24.50;92.70
12370;DHT22;6249;52.128;9.986;2022-08-06T10:39:28;25.40;91.90
12370;DHT22;6249;52.128;9.986;2022-08-06T10:42:50;26.40;86.60
12370;DHT22;6249;52.128;9.986;2022-08-06T10:46:12;26.80;79.20
12370;DHT22;6249;52.128;9.986;2022-08-06T10:49:36;26.80;80.30
12370;DHT22;6249;52.128;9.986;2022-08-06T10:52:57;26.30;80.40
12370;DHT22;6249;52.128;9.986;2022-08-06T10:56:18;25.90;82.20
12370;DHT22;6249;52.128;9.986;2022-08-06T10:59:40;25.50;86.90
12370;DHT22;6249;52.128;9.986;2022-08-06T11:03:06;25.10;87.90
12370;DHT22;6249;52.128;9.986;2022-08-06T11:14:10;27.00;72.80
12370;DHT22;6249;52.128;9.986;2022-08-06T11:17:54;26.10;76.90
12370;DHT22;6249;52.128;9.986;2022-08-06T11:21:40;26.10;79.40
12370;DHT22;6249;52.128;9.986;2022-08-06T11:25:05;27.60;76.30
12370;DHT22;6249;52.128;9.986;2022-08-06T11:31:52;29.10;64.20
12370;DHT22;6249;52.128;9.986;2022-08-06T11:38:56;29.60;63.20
12370;DHT22;6249;52.128;9.986;2022-08-06T11:42:40;29.00;61.00
12370;DHT22;6249;52.128;9.986;2022-08-06T11:46:21;27.80;63.30
12370;DHT22;6249;52.128;9.986;2022-08-06T11:49:46;27.90;70.90
12370;DHT22;6249;52.128;9.986;2022-08-06T11:53:07;28.70;60.20
12370;DHT22;6249;52.128;9.986;2022-08-06T11:56:30;28.10;63.20
12370;DHT22;6249;52.128;9.986;2022-08-06T12:03:37;26.80;66.30
12370;DHT22;6249;52.128;9.986;2022-08-06T12:07:27;26.90;66.80
12370;DHT22;6249;52.128;9.986;2022-08-06T12:14:44;29.50;59.20
12370;DHT22;6249;52.128;9.986;2022-08-06T12:18:05;30.10;57.60
12370;DHT22;6249;52.128;9.986;2022-08-06T12:21:26;31.60;57.00
12370;DHT22;6249;52.128;9.986;2022-08-06T12:24:51;31.80;55.10
12370;DHT22;6249;52.128;9.986;2022-08-06T12:28:17;30.90;53.30
12370;DHT22;6249;52.128;9.986;2022-08-06T12:31:44;29.30;55.30
12370;DHT22;6249;52.128;9.986;2022-08-06T12:35:13;28.40;58.40
12370;DHT22;6249;52.128;9.986;2022-08-06T12:38:34;27.90;56.90
12370;DHT22;6249;52.128;9.986;2022-08-06T12:41:59;28.70;55.40
12370;DHT22;6249;52.128;9.986;2022-08-06T12:45:26;30.00;53.10
12370;DHT22;6249;52.128;9.986;2022-08-06T12:48:50;31.50;51.70
12370;DHT22;6249;52.128;9.986;2022-08-06T12:52:19;32.70;48.10
12370;DHT22;6249;52.128;9.986;2022-08-06T12:55:49;33.30;47.80
12370;DHT22;6249;52.128;9.986;2022-08-06T12:59:11;33.90;46.10
12370;DHT22;6249;52.128;9.986;2022-08-06T13:02:32;33.80;46.70
12370;DHT22;6249;52.128;9.986;2022-08-06T13:05:57;34.20;45.00
12370;DHT22;6249;52.128;9.986;2022-08-06T13:09:30;33.20;44.00
12370;DHT22;6249;52.128;9.986;2022-08-06T13:13:01;31.80;45.90
12370;DHT22;6249;52.128;9.986;2022-08-06T13:16:22;31.10;47.10
12370;DHT22;6249;52.128;9.986;2022-08-06T13:19:58;30.00;48.10
12370;DHT22;6249;52.128;9.986;2022-08-06T13:23:36;29.40;50.30
12370;DHT22;6249;52.128;9.986;2022-08-06T13:26:57;28.70;53.70
12370;DHT22;6249;52.128;9.986;2022-08-06T13:30:28;28.60;54.40
12370;DHT22;6249;52.128;9.986;2022-08-06T13:34:04;30.30;53.30
12370;DHT22;6249;52.128;9.986;2022-08-06T13:37:48;31.70;48.50
12370;DHT22;6249;52.128;9.986;2022-08-06T13:41:24;31.40;48.60
12370;DHT22;6249;52.128;9.986;2022-08-06T13:44:47;32.00;47.80
12370;DHT22;6249;52.128;9.986;2022-08-06T13:48:11;33.00;45.10
12370;DHT22;6249;52.128;9.986;2022-08-06T13:51:32;33.60;46.30
12370;DHT22;6249;52.128;9.986;2022-08-06T13:54:56;34.50;43.70
12370;DHT22;6249;52.128;9.986;2022-08-06T13:58:17;35.00;44.60
12370;DHT22;6249;52.128;9.986;2022-08-06T14:01:40;35.70;42.00
12370;DHT22;6249;52.128;9.986;2022-08-06T14:05:01;36.10;40.30
12370;DHT22;6249;52.128;9.986;2022-08-06T14:08:24;36.40;39.20
12370;DHT22;6249;52.128;9.986;2022-08-06T14:11:45;36.70;36.10
12370;DHT22;6249;52.128;9.986;2022-08-06T14:15:06;35.70;36.30
12370;DHT22;6249;52.128;9.986;2022-08-06T14:18:29;35.50;35.80
12370;DHT22;6249;52.128;9.986;2022-08-06T14:21:50;34.90;36.10
12370;DHT22;6249;52.128;9.986;2022-08-06T14:25:10;35.30;34.20
12370;DHT22;6249;52.128;9.986;2022-08-06T14:28:31;35.60;34.70
12370;DHT22;6249;52.128;9.986;2022-08-06T14:31:56;35.20;34.60
12370;DHT22;6249;52.128;9.986;2022-08-06T14:35:17;35.80;32.80
12370;DHT22;6249;52.128;9.986;2022-08-06T14:38:37;35.20;31.90
12370;DHT22;6249;52.128;9.986;2022-08-06T14:42:00;34.90;32.60
12370;DHT22;6249;52.128;9.986;2022-08-06T14:45:39;35.60;32.90
12370;DHT22;6249;52.128;9.986;2022-08-06T14:49:03;36.10;34.90
12370;DHT22;6249;52.128;9.986;2022-08-06T14:52:25;36.00;37.10
12370;DHT22;6249;52.128;9.986;2022-08-06T14:55:46;35.20;36.90
12370;DHT22;6249;52.128;9.986;2022-08-06T14:59:07;36.00;37.70
12370;DHT22;6249;52.128;9.986;2022-08-06T15:02:27;37.50;37.60
12370;DHT22;6249;52.128;9.986;2022-08-06T15:05:50;38.80;34.50
12370;DHT22;6249;52.128;9.986;2022-08-06T15:09:11;39.30;33.10
12370;DHT22;6249;52.128;9.986;2022-08-06T15:12:35;39.50;33.00
12370;DHT22;6249;52.128;9.986;2022-08-06T15:15:55;39.80;34.10
12370;DHT22;6249;52.128;9.986;2022-08-06T15:19:16;40.10;32.30
12370;DHT22;6249;52.128;9.986;2022-08-06T15:22:38;40.60;30.80
12370;DHT22;6249;52.128;9.986;2022-08-06T15:26:02;41.00;30.20
12370;DHT22;6249;52.128;9.986;2022-08-06T15:29:23;40.10;29.10
12370;DHT22;6249;52.128;9.986;2022-08-06T15:32:47;39.60;30.30
12370;DHT22;6249;52.128;9.986;2022-08-06T15:36:08;40.20;30.10
12370;DHT22;6249;52.128;9.986;2022-08-06T15:39:32;40.10;29.70
12370;DHT22;6249;52.128;9.986;2022-08-06T15:42:52;39.30;29.00
12370;DHT22;6249;52.128;9.986;2022-08-06T15:46:13;39.00;29.40
12370;DHT22;6249;52.128;9.986;2022-08-06T15:49:37;38.70;28.90
12370;DHT22;6249;52.128;9.986;2022-08-06T15:52:58;38.90;29.40
12370;DHT22;6249;52.128;9.986;2022-08-06T15:56:21;39.60;27.90
12370;DHT22;6249;52.128;9.986;2022-08-06T15:59:42;39.00;27.20
12370;DHT22;6249;52.128;9.986;2022-08-06T16:03:06;37.90;27.90
12370;DHT22;6249;52.128;9.986;2022-08-06T16:06:30;37.80;29.00
12370;DHT22;6249;52.128;9.986;2022-08-06T16:09:51;37.50;28.50
12370;DHT22;6249;52.128;9.986;2022-08-06T16:13:13;36.50;28.70
12370;DHT22;6249;52.128;9.986;2022-08-06T16:16:40;35.70;33.80
12370;DHT22;6249;52.128;9.986;2022-08-06T16:20:01;35.20;32.30
12370;DHT22;6249;52.128;9.986;2022-08-06T16:23:22;34.00;32.20
12370;DHT22;6249;52.128;9.986;2022-08-06T16:26:43;32.80;35.70
12370;DHT22;6249;52.128;9.986;2022-08-06T16:30:04;32.20;36.70
12370;DHT22;6249;52.128;9.986;2022-08-06T16:33:25;31.80;37.90
12370;DHT22;6249;52.128;9.986;2022-08-06T16:36:45;31.20;37.50
12370;DHT22;6249;52.128;9.986;2022-08-06T16:40:06;30.90;38.20
12370;DHT22;6249;52.128;9.986;2022-08-06T16:43:29;30.60;38.40
12370;DHT22;6249;52.128;9.986;2022-08-06T16:46:50;29.90;39.20
12370;DHT22;6249;52.128;9.986;2022-08-06T16:50:13;29.40;39.10
12370;DHT22;6249;52.128;9.986;2022-08-06T16:53:36;29.30;41.30
12370;DHT22;6249;52.128;9.986;2022-08-06T16:56:59;29.10;41.20
12370;DHT22;6249;52.128;9.986;2022-08-06T17:00:20;28.90;41.10
12370;DHT22;6249;52.128;9.986;2022-08-06T17:03:41;28.50;40.40
12370;DHT22;6249;52.128;9.986;2022-08-06T17:07:02;28.40;41.30
12370;DHT22;6249;52.128;9.986;2022-08-06T17:10:25;28.20;41.50
12370;DHT22;6249;52.128;9.986;2022-08-06T17:13:45;28.00;43.00
12370;DHT22;6249;52.128;9.986;2022-08-06T17:17:08;27.60;42.00
12370;DHT22;6249;52.128;9.986;2022-08-06T17:20:34;27.40;41.40
12370;DHT22;6249;52.128;9.986;2022-08-06T17:23:57;27.10;41.60
12370;DHT22;6249;52.128;9.986;2022-08-06T17:27:17;27.00;41.60
12370;DHT22;6249;52.128;9.986;2022-08-06T17:30:38;26.90;44.00
12370;DHT22;6249;52.128;9.986;2022-08-06T17:33:59;26.70;42.70
12370;DHT22;6249;52.128;9.986;2022-08-06T17:37:19;26.60;44.30
12370;DHT22;6249;52.128;9.986;2022-08-06T17:40:40;26.50;45.30
12370;DHT22;6249;52.128;9.986;2022-08-06T17:44:01;26.40;44.60
12370;DHT22;6249;52.128;9.986;2022-08-06T17:47:22;26.10;45.70
12370;DHT22;6249;52.128;9.986;2022-08-06T17:50:43;25.90;46.70
12370;DHT22;6249;52.128;9.986;2022-08-06T17:54:04;25.90;47.80
12370;DHT22;6249;52.128;9.986;2022-08-06T17:57:25;25.70;47.40
12370;DHT22;6249;52.128;9.986;2022-08-06T18:00:51;25.50;50.10
12370;DHT22;6249;52.128;9.986;2022-08-06T18:04:12;25.50;48.80
12370;DHT22;6249;52.128;9.986;2022-08-06T18:07:34;25.30;49.30
12370;DHT22;6249;52.128;9.986;2022-08-06T18:10:55;25.00;50.50
12370;DHT22;6249;52.128;9.986;2022-08-06T18:14:15;24.80;51.20
12370;DHT22;6249;52.128;9.986;2022-08-06T18:17:36;24.80;51.30
12370;DHT22;6249;52.128;9.986;2022-08-06T18:20:57;24.50;51.50
12370;DHT22;6249;52.128;9.986;2022-08-06T18:24:17;24.30;52.90
12370;DHT22;6249;52.128;9.986;2022-08-06T18:27:44;24.20;53.80
12370;DHT22;6249;52.128;9.986;2022-08-06T18:31:06;24.00;54.00
12370;DHT22;6249;52.128;9.986;2022-08-06T18:34:31;23.80;55.70
12370;DHT22;6249;52.128;9.986;2022-08-06T18:37:52;23.70;56.50
12370;DHT22;6249;52.128;9.986;2022-08-06T18:41:15;23.50;58.00
12370;DHT22;6249;52.128;9.986;2022-08-06T18:44:38;23.30;57.70
12370;DHT22;6249;52.128;9.986;2022-08-06T18:47:59;23.20;57.80
12370;DHT22;6249;52.128;9.986;2022-08-06T18:51:22;23.10;59.60
12370;DHT22;6249;52.128;9.986;2022-08-06T18:54:43;22.90;60.60
12370;DHT22;6249;52.128;9.986;2022-08-06T18:58:07;22.70;61.70
12370;DHT22;6249;52.128;9.986;2022-08-06T19:01:27;22.60;62.70
12370;DHT22;6249;52.128;9.986;2022-08-06T19:04:50;22.40;63.90
12370;DHT22;6249;52.128;9.986;2022-08-06T19:08:16;22.20;65.60
12370;DHT22;6249;52.128;9.986;2022-08-06T19:11:39;22.00;66.80
12370;DHT22;6249;52.128;9.986;2022-08-06T19:14:59;21.80;68.00
12370;DHT22;6249;52.128;9.986;2022-08-06T19:18:22;21.60;69.30
12370;DHT22;6249;52.128;9.986;2022-08-06T19:21:43;21.50;70.50
12370;DHT22;6249;52.128;9.986;2022-08-06T19:25:04;21.20;71.60
12370;DHT22;6249;52.128;9.986;2022-08-06T19:28:27;20.90;72.80
12370;DHT22;6249;52.128;9.986;2022-08-06T19:31:50;20.80;74.90
12370;DHT22;6249;52.128;9.986;2022-08-06T19:35:11;20.70;76.60
12370;DHT22;6249;52.128;9.986;2022-08-06T19:38:32;20.50;78.40
12370;DHT22;6249;52.128;9.986;2022-08-06T19:41:53;20.40;79.80
12370;DHT22;6249;52.128;9.986;2022-08-06T19:45:19;20.20;80.70
12370;DHT22;6249;52.128;9.986;2022-08-06T19:48:40;20.00;82.50
12370;DHT22;6249;52.128;9.986;2022-08-06T19:52:02;19.90;83.90
12370;DHT22;6249;52.128;9.986;2022-08-06T19:55:24;19.90;84.50
12370;DHT22;6249;52.128;9.986;2022-08-06T19:58:45;19.80;86.70
12370;DHT22;6249;52.128;9.986;2022-08-06T20:02:06;19.70;87.90
12370;DHT22;6249;52.128;9.986;2022-08-06T20:05:27;19.60;88.70
12370;DHT22;6249;52.128;9.986;2022-08-06T20:08:50;19.50;90.20
12370;DHT22;6249;52.128;9.986;2022-08-06T20:12:11;19.40;90.90
12370;DHT22;6249;52.128;9.986;2022-08-06T20:15:34;19.30;91.80
12370;DHT22;6249;52.128;9.986;2022-08-06T20:18:55;19.10;92.90
12370;DHT22;6249;52.128;9.986;2022-08-06T20:22:18;19.00;94.00
12370;DHT22;6249;52.128;9.986;2022-08-06T20:25:40;18.80;94.40
12370;DHT22;6249;52.128;9.986;2022-08-06T20:29:03;18.80;95.40
12370;DHT22;6249;52.128;9.986;2022-08-06T20:32:28;18.80;96.00
12370;DHT22;6249;52.128;9.986;2022-08-06T20:35:52;18.70;97.40
12370;DHT22;6249;52.128;9.986;2022-08-06T20:39:13;18.60;98.10
12370;DHT22;6249;52.128;9.986;2022-08-06T20:42:34;18.50;98.60
12370;DHT22;6249;52.128;9.986;2022-08-06T20:45:59;18.30;99.50
12370;DHT22;6249;52.128;9.986;2022-08-06T20:49:23;18.10;99.90
12370;DHT22;6249;52.128;9.986;2022-08-06T20:52:45;18.00;99.90
12370;DHT22;6249;52.128;9.986;2022-08-06T20:56:10;17.90;99.90
12370;DHT22;6249;52.128;9.986;2022-08-06T20:59:32;17.90;99.90
12370;DHT22;6249;52.128;9.986;2022-08-06T21:02:53;17.80;99.90
12370;DHT22;6249;52.128;9.986;2022-08-06T21:06:13;17.70;99.90
12370;DHT22;6249;52.128;9.986;2022-08-06T21:09:34;17.60;99.90
12370;DHT22;6249;52.128;9.986;2022-08-06T21:12:55;17.50;99.90
12370;DHT22;6249;52.128;9.986;2022-08-06T21:16:16;17.50;99.90
12370;DHT22;6249;52.128;9.986;2022-08-06T21:19:36;17.50;99.90
12370;DHT22;6249;52.128;9.986;2022-08-06T21:22:57;17.40;99.90
12370;DHT22;6249;52.128;9.986;2022-08-06T21:26:18;17.40;99.90
12370;DHT22;6249;52.128;9.986;2022-08-06T21:29:38;17.40;99.90
12370;DHT22;6249;52.128;9.986;2022-08-06T21:32:59;17.20;99.90
12370;DHT22;6249;52.128;9.986;2022-08-06T21:36:20;17.00;99.90
12370;DHT22;6249;52.128;9.986;2022-08-06T21:39:43;16.90;99.90
12370;DHT22;6249;52.128;9.986;2022-08-06T21:43:04;16.70;99.90
12370;DHT22;6249;52.128;9.986;2022-08-06T21:46:26;16.60;99.90
12370;DHT22;6249;52.128;9.986;2022-08-06T21:49:49;16.60;99.90
12370;DHT22;6249;52.128;9.986;2022-08-06T21:53:09;16.60;99.90
12370;DHT22;6249;52.128;9.986;2022-08-06T21:56:30;16.50;99.90
12370;DHT22;6249;52.128;9.986;2022-08-06T21:59:53;16.50;99.90
12370;DHT22;6249;52.128;9.986;2022-08-06T22:03:15;16.40;99.90
12370;DHT22;6249;52.128;9.986;2022-08-06T22:06:38;16.40;99.90
12370;DHT22;6249;52.128;9.986;2022-08-06T22:10:02;16.30;99.90
12370;DHT22;6249;52.128;9.986;2022-08-06T22:13:25;16.30;99.90
12370;DHT22;6249;52.128;9.986;2022-08-06T22:16:50;16.20;99.90
12370;DHT22;6249;52.128;9.986;2022-08-06T22:20:11;16.00;99.90
12370;DHT22;6249;52.128;9.986;2022-08-06T22:23:32;16.00;99.90
12370;DHT22;6249;52.128;9.986;2022-08-06T22:26:53;15.90;99.90
12370;DHT22;6249;52.128;9.986;2022-08-06T22:30:13;15.80;99.90
12370;DHT22;6249;52.128;9.986;2022-08-06T22:33:52;15.70;99.90
12370;DHT22;6249;52.128;9.986;2022-08-06T22:37:15;15.70;99.90